Time;durP1;ratioP1;P1;durP2;ratioP2;P2;SDS_P1;SDS_P2;PMS_P1;PMS_P2;Temp;Humidity;BMP_temperature;BMP_pressure;BME280_temperature;BME280_humidity;BME280_pressure;Samples;Min_cycle;Max_cycle;Signal;HPM_P1;HPM_P2
2024/01/20 00:01:18;;;;;;;;;4.00;3.60;;;;;-0.49;84.21;100836.00;5075088;28;8912;-57
2024/01/20 00:03:45;;;;;;;;;3.00;2.60;;;;;-0.51;84.79;100837.78;5074586;28;8827;-56
2024/01/20 00:06:13;;;;;;;;;1.00;1.00;;;;;-0.51;84.44;100832.56;5074064;28;8832;-58
2024/01/20 00:08:41;;;;;;;;;3.00;3.00;;;;;-0.54;84.26;100826.53;5084181;28;8929;-59
2024/01/20 00:11:09;;;;;;;;;4.00;3.20;;;;;-0.54;84.89;100831.75;5094891;28;8822;-59
2024/01/20 00:13:37;;;;;;;;;3.20;3.20;;;;;-0.56;84.82;100830.91;5095267;28;8918;-59
2024/01/20 00:16:04;;;;;;;;;4.40;3.80;;;;;-0.59;84.60;100825.75;5094384;28;8899;-58
2024/01/20 00:18:32;;;;;;;;;1.60;1.00;;;;;-0.59;84.56;100833.59;5093355;28;8828;-59
2024/01/20 00:21:00;;;;;;;;;4.40;4.40;;;;;-0.60;84.39;100830.16;5098148;28;9584;-58
2024/01/20 00:23:28;;;;;;;;;5.40;2.20;;;;;-0.61;84.81;100830.16;5099810;28;8827;-58
2024/01/20 00:25:55;;;;;;;;;1.80;1.00;;;;;-0.59;85.00;100828.38;5099530;28;8829;-58
2024/01/20 00:28:23;;;;;;;;;4.00;4.00;;;;;-0.62;84.86;100831.06;5099156;28;8888;-59
2024/01/20 00:30:51;;;;;;;;;4.40;4.00;;;;;-0.62;84.45;100833.69;5099513;28;8825;-56
2024/01/20 00:33:18;;;;;;;;;4.00;4.00;;;;;-0.61;85.19;100832.78;5099391;28;8952;-56
2024/01/20 00:35:47;;;;;;;;;1.00;1.00;;;;;-0.61;84.70;100830.16;5099047;28;8830;-57
2024/01/20 00:38:14;;;;;;;;;4.00;3.40;;;;;-0.58;84.42;100840.56;5098657;28;8817;-57
2024/01/20 00:40:42;;;;;;;;;5.80;5.60;;;;;-0.57;84.75;100823.97;5098820;28;8818;-56
2024/01/20 00:43:10;;;;;;;;;1.00;1.00;;;;;-0.57;84.90;100837.03;5099152;28;8843;-56
2024/01/20 00:45:37;;;;;;;;;5.60;4.40;;;;;-0.60;84.60;100837.13;5098989;28;8810;-57
2024/01/20 00:48:05;;;;;;;;;4.00;4.00;;;;;-0.61;84.94;100832.78;5099093;28;9521;-57
2024/01/20 00:50:32;;;;;;;;;1.00;1.00;;;;;-0.64;84.17;100840.66;5099237;28;8895;-57
2024/01/20 00:53:00;;;;;;;;;3.00;3.00;;;;;-0.65;84.76;100833.72;5099063;28;8818;-57
2024/01/20 00:55:28;;;;;;;;;2.60;2.60;;;;;-0.67;84.65;100830.28;5099027;28;9656;-56
2024/01/20 00:57:56;;;;;;;;;1.00;1.00;;;;;-0.69;85.13;100832.91;5097599;28;8817;-56
2024/01/20 01:00:23;;;;;;;;;2.00;2.00;;;;;-0.72;84.55;100833.00;5097881;28;8806;-57
2024/01/20 01:02:51;;;;;;;;;1.00;1.00;;;;;-0.75;84.46;100827.84;5098004;28;8844;-59
2024/01/20 01:05:18;;;;;;;;;3.00;2.80;;;;;-0.76;85.12;100838.31;5098096;28;8829;-59
2024/01/20 01:07:46;;;;;;;;;5.60;5.60;;;;;-0.79;84.82;100839.22;5098394;28;8824;-56
2024/01/20 01:10:14;;;;;;;;;1.00;1.00;;;;;-0.80;84.77;100849.72;5097731;28;8826;-57
2024/01/20 01:12:41;;;;;;;;;5.40;4.60;;;;;-0.82;84.93;100848.88;5098413;28;8910;-58
2024/01/20 01:15:09;;;;;;;;;1.40;1.40;;;;;-0.83;85.09;100849.78;5098163;28;9743;-58
2024/01/20 01:17:37;;;;;;;;;2.20;2.20;;;;;-0.86;84.53;100863.75;5097496;28;9515;-59
2024/01/20 01:20:04;;;;;;;;;3.80;3.80;;;;;-0.86;84.59;100857.69;5077928;28;8901;-59
2024/01/20 01:22:32;;;;;;;;;3.40;3.40;;;;;-0.88;84.63;100873.41;5077616;28;9536;-59
2024/01/20 01:24:59;;;;;;;;;5.80;4.80;;;;;-0.89;84.87;100871.69;5077557;28;8840;-59
2024/01/20 01:27:27;;;;;;;;;1.00;1.00;;;;;-0.90;84.67;100871.69;5077624;28;8835;-59
2024/01/20 01:29:54;;;;;;;;;3.80;3.60;;;;;-0.89;84.21;100870.81;5093700;28;8822;-58
2024/01/20 01:32:23;;;;;;;;;4.80;4.00;;;;;-0.89;84.64;100870.81;5095554;28;9522;-59
2024/01/20 01:34:51;;;;;;;;;4.40;4.40;;;;;-0.89;84.56;100870.81;5095767;28;8930;-56
2024/01/20 01:37:19;;;;;;;;;3.80;3.60;;;;;-0.91;85.08;100869.97;5097620;28;8915;-59
2024/01/20 01:39:46;;;;;;;;;5.20;4.80;;;;;-0.95;84.21;100874.41;5080305;28;8825;-59
2024/01/20 01:42:14;;;;;;;;;0.60;0.40;;;;;-0.96;84.07;100874.41;5076794;28;8828;-59
2024/01/20 01:44:42;;;;;;;;;3.00;3.00;;;;;-0.99;84.60;100874.47;5076498;28;8827;-59
2024/01/20 01:47:09;;;;;;;;;1.00;0.80;;;;;-1.02;84.62;100869.28;5077139;28;8851;-59
2024/01/20 01:49:37;;;;;;;;;6.60;5.20;;;;;-1.08;84.10;100890.34;5076200;28;8814;-59
2024/01/20 01:52:10;;;;;;;;;4.80;4.00;;;;;-1.14;84.16;100895.66;5077759;28;9589;-59
2024/01/20 01:54:37;;;;;;;;;3.60;3.20;;;;;-1.17;84.84;100883.50;5077248;28;8818;-59
2024/01/20 01:57:05;;;;;;;;;1.80;1.40;;;;;-1.18;84.70;100896.59;5076844;28;8887;-59
2024/01/20 01:59:32;;;;;;;;;1.80;1.80;;;;;-1.21;84.74;100883.59;5077238;28;8815;-59
2024/01/20 02:02:00;;;;;;;;;2.60;2.60;;;;;-1.22;84.67;100887.09;5076469;28;8874;-59
2024/01/20 02:04:28;;;;;;;;;2.00;0.80;;;;;-1.26;84.75;100882.78;5076924;28;8832;-59
2024/01/20 02:06:55;;;;;;;;;1.00;1.00;;;;;-1.29;84.35;100881.09;5077017;28;8824;-58
2024/01/20 02:09:23;;;;;;;;;2.60;2.60;;;;;-1.34;84.66;100887.28;5080720;28;9573;-58
2024/01/20 02:11:51;;;;;;;;;3.20;3.00;;;;;-1.37;84.28;100884.75;5096615;28;8834;-58
2024/01/20 02:14:19;;;;;;;;;2.40;2.40;;;;;-1.38;84.82;100880.41;5096410;28;9610;-59
2024/01/20 02:16:47;;;;;;;;;3.00;3.00;;;;;-1.39;84.79;100883.88;5096249;28;8853;-59
2024/01/20 02:19:15;;;;;;;;;5.20;4.40;;;;;-1.39;84.48;100884.75;5096347;28;8913;-57
2024/01/20 02:21:42;;;;;;;;;6.60;6.40;;;;;-1.39;85.07;100882.16;5096119;28;8820;-59
2024/01/20 02:24:11;;;;;;;;;6.60;6.60;;;;;-1.38;84.69;100880.41;5097119;28;8808;-59
2024/01/20 02:26:39;;;;;;;;;4.20;4.20;;;;;-1.38;84.92;100886.47;5096805;28;8827;-59
2024/01/20 02:29:07;;;;;;;;;0.80;0.80;;;;;-1.38;84.40;100880.41;5095837;28;8833;-59
2024/01/20 02:31:34;;;;;;;;;3.00;2.60;;;;;-1.41;84.27;100888.28;5096833;28;8837;-59
2024/01/20 02:34:02;;;;;;;;;7.40;6.00;;;;;-1.40;84.73;100887.38;5097520;28;9510;-59
2024/01/20 02:36:30;;;;;;;;;3.20;3.20;;;;;-1.40;84.50;100888.25;5096874;28;8825;-59
2024/01/20 02:38:57;;;;;;;;;8.60;7.40;;;;;-1.42;84.39;100890.03;5095889;28;8821;-59
2024/01/20 02:41:25;;;;;;;;;6.40;4.80;;;;;-1.44;84.46;100886.56;5095673;28;8924;-59
2024/01/20 02:43:53;;;;;;;;;5.80;5.80;;;;;-1.43;84.36;100904.00;5096284;28;8834;-59
2024/01/20 02:46:20;;;;;;;;;4.40;3.00;;;;;-1.44;84.26;100904.84;5097030;28;8898;-57
2024/01/20 02:48:48;;;;;;;;;4.40;3.40;;;;;-1.45;84.72;100902.28;5095629;28;8828;-58
2024/01/20 02:51:15;;;;;;;;;3.60;3.60;;;;;-1.47;84.66;100902.28;5096353;28;8807;-57
2024/01/20 02:53:43;;;;;;;;;6.80;6.80;;;;;-1.48;84.65;100905.81;5095804;28;8950;-57
2024/01/20 02:56:10;;;;;;;;;3.60;3.00;;;;;-1.49;84.05;100908.44;5094819;28;8867;-58
2024/01/20 02:58:38;;;;;;;;;2.80;2.60;;;;;-1.50;83.94;100909.31;5095284;28;8919;-57
2024/01/20 03:01:05;;;;;;;;;3.80;3.80;;;;;-1.52;84.31;100913.72;5096233;28;8825;-56
2024/01/20 03:03:33;;;;;;;;;2.80;2.80;;;;;-1.51;84.32;100910.22;5096479;28;8837;-57
2024/01/20 03:06:01;;;;;;;;;2.60;2.60;;;;;-1.51;84.58;100900.59;5096630;28;8840;-57
2024/01/20 03:08:29;;;;;;;;;4.00;3.20;;;;;-1.50;84.15;100899.75;5096530;28;8940;-59
2024/01/20 03:10:57;;;;;;;;;3.20;3.20;;;;;-1.50;84.29;100901.47;5095837;28;8822;-57
2024/01/20 03:13:24;;;;;;;;;3.80;3.80;;;;;-1.50;84.63;100899.75;5095600;28;8914;-58
2024/01/20 03:15:52;;;;;;;;;9.00;6.60;;;;;-1.52;85.06;100903.25;5096155;28;8834;-59
2024/01/20 03:18:19;;;;;;;;;0.60;0.60;;;;;-1.54;84.02;100899.78;5096109;28;8814;-57
2024/01/20 03:20:47;;;;;;;;;1.00;1.00;;;;;-1.54;83.56;100899.78;5096679;28;9522;-57
2024/01/20 03:23:15;;;;;;;;;3.80;3.80;;;;;-1.55;83.61;100903.28;5096231;28;8823;-57
2024/01/20 03:25:42;;;;;;;;;3.00;2.80;;;;;-1.53;84.05;100914.59;5096006;28;8830;-58
2024/01/20 03:28:10;;;;;;;;;1.00;1.00;;;;;-1.51;84.54;100920.66;5095423;28;8892;-59
2024/01/20 03:30:37;;;;;;;;;4.00;4.00;;;;;-1.52;84.13;100917.16;5095799;28;8891;-58
2024/01/20 03:33:05;;;;;;;;;3.20;3.00;;;;;-1.52;83.82;100916.31;5095640;28;8829;-59
2024/01/20 03:35:33;;;;;;;;;2.60;2.60;;;;;-1.54;83.87;100918.94;5095493;28;8861;-56
2024/01/20 03:38:01;;;;;;;;;1.00;1.00;;;;;-1.57;84.19;100915.50;5095998;28;8853;-59
2024/01/20 03:40:28;;;;;;;;;1.40;1.40;;;;;-1.60;84.30;100920.78;5095705;28;8875;-56
2024/01/20 03:42:57;;;;;;;;;3.40;3.00;;;;;-1.62;84.15;100919.94;5095954;28;8980;-56
2024/01/20 03:45:25;;;;;;;;;4.00;3.00;;;;;-1.65;84.52;100927.81;5095887;28;8830;-59
2024/01/20 03:47:52;;;;;;;;;0.00;0.00;;;;;-1.68;83.78;100920.06;5095756;28;8907;-57
2024/01/20 03:50:20;;;;;;;;;1.00;1.00;;;;;-1.69;83.99;100929.63;5094478;28;8899;-59
2024/01/20 03:52:47;;;;;;;;;1.00;0.00;;;;;-1.68;84.34;100927.88;5095238;28;8818;-59
2024/01/20 03:55:15;;;;;;;;;3.00;2.60;;;;;-1.69;84.27;100931.34;5098075;28;8825;-58
2024/01/20 03:57:43;;;;;;;;;0.20;0.00;;;;;-1.67;84.38;100927.00;5100166;28;8807;-56
2024/01/20 04:00:10;;;;;;;;;3.00;1.00;;;;;-1.65;84.24;100933.03;5099676;28;9479;-57
2024/01/20 04:02:38;;;;;;;;;1.80;1.00;;;;;-1.66;84.43;100941.75;5099757;28;8833;-56
2024/01/20 04:05:06;;;;;;;;;2.20;2.20;;;;;-1.67;84.40;100929.59;5099304;28;8848;-57
2024/01/20 04:07:33;;;;;;;;;3.00;3.00;;;;;-1.69;84.68;100936.56;5099104;28;8807;-56
2024/01/20 04:10:01;;;;;;;;;1.40;1.00;;;;;-1.71;83.82;100940.97;5098906;28;8864;-56
2024/01/20 04:12:28;;;;;;;;;3.00;1.80;;;;;-1.74;84.53;100939.25;5099550;28;8814;-57
2024/01/20 04:14:56;;;;;;;;;0.60;0.40;;;;;-1.77;84.27;100930.59;5099152;28;8845;-57
2024/01/20 04:17:24;;;;;;;;;1.00;1.00;;;;;-1.80;84.07;100938.47;5099342;28;8964;-57
2024/01/20 04:19:51;;;;;;;;;2.20;1.80;;;;;-1.82;84.31;100932.44;5098443;28;8910;-57
2024/01/20 04:22:19;;;;;;;;;0.80;0.80;;;;;-1.85;84.49;100935.06;5099306;28;8830;-56
2024/01/20 04:24:52;;;;;;;;;0.00;0.00;;;;;-1.87;83.86;100936.84;5099525;28;8947;-56
2024/01/20 04:27:19;;;;;;;;;5.20;3.80;;;;;-1.90;84.42;100931.69;5099520;28;8829;-57
2024/01/20 04:29:47;;;;;;;;;3.00;3.00;;;;;-1.92;84.47;100943.84;5099232;28;8824;-56
2024/01/20 04:32:15;;;;;;;;;1.00;1.00;;;;;-1.95;84.56;100944.78;5099409;28;8829;-59
2024/01/20 04:34:42;;;;;;;;;4.00;3.00;;;;;-1.98;84.42;100949.19;5098769;28;8853;-57
2024/01/20 04:37:10;;;;;;;;;0.00;0.00;;;;;-2.01;83.77;100952.69;5099117;28;8818;-56
2024/01/20 04:39:38;;;;;;;;;0.80;0.80;;;;;-2.04;84.40;100962.31;5099009;28;8809;-56
2024/01/20 04:42:09;;;;;;;;;1.80;1.80;;;;;-2.07;84.49;100947.53;5099560;28;8832;-57
2024/01/20 04:44:36;;;;;;;;;1.40;1.40;;;;;-2.10;84.71;100955.41;5098901;28;8891;-59
2024/01/20 04:47:04;;;;;;;;;1.40;1.40;;;;;-2.08;84.47;100965.81;5098727;28;8857;-58
2024/01/20 04:49:32;;;;;;;;;1.00;0.00;;;;;-2.09;84.21;100971.91;5098920;28;8856;-58
2024/01/20 04:52:01;;;;;;;;;1.80;1.80;;;;;-2.11;84.66;100969.31;5099101;28;8906;-57
2024/01/20 04:54:29;;;;;;;;;2.60;2.20;;;;;-2.14;84.63;100976.34;5098703;28;9491;-57
2024/01/20 04:56:57;;;;;;;;;1.00;1.00;;;;;-2.14;84.66;100979.81;5097534;28;8822;-57
2024/01/20 04:59:25;;;;;;;;;2.20;2.20;;;;;-2.15;84.40;100982.41;5097889;28;8850;-59
2024/01/20 05:01:53;;;;;;;;;1.40;1.40;;;;;-2.13;84.18;100985.91;5098012;28;8833;-56
2024/01/20 05:04:21;;;;;;;;;1.40;1.00;;;;;-2.11;84.58;100987.56;5097717;28;8825;-57
2024/01/20 05:06:49;;;;;;;;;1.00;1.00;;;;;-2.10;84.50;100985.84;5096507;28;8818;-59
2024/01/20 05:09:17;;;;;;;;;3.20;1.00;;;;;-2.08;84.28;100978.84;5098133;28;8842;-58
2024/01/20 05:11:44;;;;;;;;;1.40;1.00;;;;;-2.08;84.80;100986.69;5097222;28;8875;-57
2024/01/20 05:14:12;;;;;;;;;4.00;4.00;;;;;-2.06;84.51;100990.16;5096944;28;8948;-57
2024/01/20 05:16:40;;;;;;;;;2.20;1.00;;;;;-2.05;84.69;100984.91;5097282;28;8892;-59
2024/01/20 05:19:07;;;;;;;;;2.80;1.80;;;;;-2.03;83.84;100987.50;5098003;28;8826;-59
2024/01/20 05:21:37;;;;;;;;;3.00;3.00;;;;;-2.03;84.57;100982.28;5098122;28;8822;-59
2024/01/20 05:24:05;;;;;;;;;1.80;1.00;;;;;-2.03;84.39;100997.94;5098458;28;8822;-57
2024/01/20 05:26:33;;;;;;;;;3.80;3.40;;;;;-2.01;84.00;100996.16;5083119;28;9481;-57
2024/01/20 05:29:01;;;;;;;;;3.00;1.80;;;;;-2.01;84.66;100993.56;5076482;28;8828;-57
2024/01/20 05:31:31;;;;;;;;;3.00;3.00;;;;;-2.00;84.45;100997.88;5082194;28;9352;-57
2024/01/20 05:33:59;;;;;;;;;1.80;1.80;;;;;-2.01;84.20;101007.47;5096654;28;8834;-56
2024/01/20 05:36:27;;;;;;;;;0.40;0.40;;;;;-1.99;83.67;100992.66;5084497;28;8836;-59
2024/01/20 05:38:55;;;;;;;;;2.60;2.20;;;;;-1.99;84.07;100999.63;5078010;28;8820;-58
2024/01/20 05:41:23;;;;;;;;;2.20;2.20;;;;;-1.99;84.58;101003.09;5077625;28;8836;-59
2024/01/20 05:43:51;;;;;;;;;3.00;2.20;;;;;-1.99;83.81;100999.63;5077190;28;8828;-60
2024/01/20 05:46:19;;;;;;;;;3.00;1.00;;;;;-1.97;84.46;100997.88;5077931;28;8848;-58
2024/01/20 05:48:46;;;;;;;;;4.00;3.00;;;;;-1.97;84.09;100993.50;5077696;28;8828;-59
2024/01/20 05:51:14;;;;;;;;;0.00;0.00;;;;;-1.97;84.13;100997.88;5077698;28;9667;-60
2024/01/20 05:53:42;;;;;;;;;3.80;3.40;;;;;-1.98;84.30;100996.16;5076767;28;8995;-59
2024/01/20 05:56:10;;;;;;;;;1.00;1.00;;;;;-1.94;84.05;101003.91;5077438;28;8840;-57
2024/01/20 05:58:37;;;;;;;;;1.40;1.40;;;;;-1.93;84.13;101013.47;5096566;28;8832;-58
2024/01/20 06:01:05;;;;;;;;;2.40;1.40;;;;;-1.92;84.45;101003.88;5097448;28;8856;-59
2024/01/20 06:03:33;;;;;;;;;3.00;3.00;;;;;-1.89;83.99;101006.47;5097052;28;9519;-58
2024/01/20 06:06:01;;;;;;;;;2.60;2.20;;;;;-1.87;84.45;101004.69;5090609;28;8933;-58
2024/01/20 06:08:29;;;;;;;;;3.20;1.80;;;;;-1.85;83.97;100995.06;5077407;28;8828;-59
2024/01/20 06:10:57;;;;;;;;;2.60;2.60;;;;;-1.85;84.19;100998.56;5077199;28;8838;-57
2024/01/20 06:13:24;;;;;;;;;2.20;0.80;;;;;-1.87;83.48;101002.94;5077086;28;8907;-59
2024/01/20 06:15:52;;;;;;;;;1.00;1.00;;;;;-1.87;83.92;101017.72;5076812;28;8936;-59
2024/01/20 06:18:20;;;;;;;;;2.80;1.80;;;;;-1.88;83.33;101016.88;5095777;28;8824;-57
2024/01/20 06:20:47;;;;;;;;;1.00;0.40;;;;;-1.88;83.67;101018.63;5097541;28;8954;-59
2024/01/20 06:23:15;;;;;;;;;3.40;1.80;;;;;-1.90;83.96;101028.22;5097201;28;8811;-60
2024/01/20 06:25:43;;;;;;;;;3.00;3.00;;;;;-1.90;83.67;101030.81;5096966;28;8792;-58
2024/01/20 06:28:11;;;;;;;;;0.00;0.00;;;;;-1.91;83.50;101027.34;5097304;28;8839;-59
2024/01/20 06:30:39;;;;;;;;;1.00;0.20;;;;;-1.90;83.48;101030.81;5096894;28;8811;-59
2024/01/20 06:33:07;;;;;;;;;0.00;0.00;;;;;-1.89;84.00;101036.00;5097541;28;8941;-60
2024/01/20 06:35:34;;;;;;;;;0.60;0.60;;;;;-1.89;84.04;101040.38;5096531;28;8816;-59
2024/01/20 06:38:02;;;;;;;;;1.40;1.40;;;;;-1.88;83.99;101045.59;5096518;28;9504;-59
2024/01/20 06:40:30;;;;;;;;;0.80;0.80;;;;;-1.87;83.92;101056.88;5096172;28;8826;-60
2024/01/20 06:42:58;;;;;;;;;1.00;1.00;;;;;-1.91;83.52;101055.19;5095754;28;8836;-60
2024/01/20 06:45:25;;;;;;;;;1.40;1.00;;;;;-1.93;84.04;101060.41;5095937;28;8852;-58
2024/01/20 06:47:53;;;;;;;;;0.00;0.00;;;;;-1.95;83.64;101050.88;5075917;28;8868;-60
2024/01/20 06:50:21;;;;;;;;;1.00;1.00;;;;;-1.94;83.50;101057.81;5075819;28;9594;-59
2024/01/20 06:52:49;;;;;;;;;1.00;1.00;;;;;-1.96;83.92;101059.59;5076293;28;8850;-59
2024/01/20 06:55:16;;;;;;;;;3.00;1.00;;;;;-1.96;83.68;101056.97;5075819;28;8813;-59
2024/01/20 06:57:44;;;;;;;;;6.20;3.20;;;;;-1.99;83.79;101046.59;5094422;28;8828;-60
2024/01/20 07:00:12;;;;;;;;;3.80;3.00;;;;;-2.01;83.81;101051.81;5096120;28;8808;-59
2024/01/20 07:02:39;;;;;;;;;2.40;2.20;;;;;-2.02;83.76;101057.94;5095959;28;8837;-59
2024/01/20 07:05:08;;;;;;;;;1.80;1.80;;;;;-2.04;83.61;101058.81;5095986;28;9461;-60
2024/01/20 07:07:35;;;;;;;;;1.00;1.00;;;;;-2.04;84.25;101048.38;5095573;28;8932;-57
2024/01/20 07:10:03;;;;;;;;;0.40;0.40;;;;;-2.05;83.79;101052.72;5096190;28;8866;-58
2024/01/20 07:12:31;;;;;;;;;3.00;2.20;;;;;-2.03;83.79;101055.31;5095042;28;8829;-58
2024/01/20 07:14:59;;;;;;;;;0.60;0.60;;;;;-2.02;83.74;101054.44;5094650;28;9652;-58
2024/01/20 07:17:27;;;;;;;;;1.00;1.00;;;;;-2.00;83.72;101061.38;5094565;28;8846;-56
2024/01/20 07:19:55;;;;;;;;;3.20;3.20;;;;;-1.98;83.89;101056.16;5094788;28;8833;-59
2024/01/20 07:22:23;;;;;;;;;0.00;0.00;;;;;-1.95;83.67;101064.81;5095066;28;9764;-56
2024/01/20 07:24:50;;;;;;;;;1.00;1.00;;;;;-1.94;83.85;101061.31;5095077;28;8826;-56
2024/01/20 07:27:18;;;;;;;;;1.80;1.00;;;;;-1.91;83.55;101061.25;5094434;28;8936;-57
2024/01/20 07:29:46;;;;;;;;;1.00;0.60;;;;;-1.85;83.18;101060.31;5094760;28;8868;-57
2024/01/20 07:32:13;;;;;;;;;2.20;1.80;;;;;-1.83;83.21;101069.03;5095498;28;8887;-59
2024/01/20 07:34:42;;;;;;;;;1.00;1.00;;;;;-1.80;83.26;101067.22;5095685;28;8832;-56
2024/01/20 07:37:09;;;;;;;;;1.00;1.00;;;;;-1.77;83.18;101075.00;5097412;28;8810;-56
2024/01/20 07:39:38;;;;;;;;;1.00;1.00;;;;;-1.76;83.58;101078.50;5098398;28;8810;-59
2024/01/20 07:42:06;;;;;;;;;2.20;2.20;;;;;-1.76;83.95;101081.13;5096295;28;8834;-57
2024/01/20 07:44:34;;;;;;;;;3.20;3.00;;;;;-1.74;83.51;101081.94;5097880;28;8933;-58
2024/01/20 07:47:02;;;;;;;;;2.20;1.00;;;;;-1.73;83.73;101076.72;5097036;28;8835;-56
2024/01/20 07:49:30;;;;;;;;;2.20;1.60;;;;;-1.71;83.07;101076.69;5094028;28;8851;-57
2024/01/20 07:51:57;;;;;;;;;0.80;0.20;;;;;-1.68;83.15;101082.72;5094655;28;9634;-57
2024/01/20 07:54:25;;;;;;;;;0.60;0.20;;;;;-1.64;83.08;101088.78;5094765;28;8840;-59
2024/01/20 07:56:53;;;;;;;;;0.00;0.00;;;;;-1.64;83.06;101092.25;5094273;28;8925;-57
2024/01/20 07:59:21;;;;;;;;;1.00;1.00;;;;;-1.63;83.18;101100.94;5094509;28;8835;-58
2024/01/20 08:01:49;;;;;;;;;1.00;1.00;;;;;-1.60;83.52;101098.31;5094433;28;8814;-57
2024/01/20 08:04:17;;;;;;;;;1.00;1.00;;;;;-1.55;83.11;101092.16;5094766;28;8948;-57
2024/01/20 08:06:45;;;;;;;;;0.60;0.00;;;;;-1.51;83.18;101085.13;5094541;28;8822;-56
2024/01/20 08:09:13;;;;;;;;;2.60;2.60;;;;;-1.48;83.07;101087.69;5094450;28;8849;-59
2024/01/20 08:11:41;;;;;;;;;2.20;2.20;;;;;-1.45;82.84;101104.19;5094493;28;9698;-57
2024/01/20 08:14:08;;;;;;;;;1.00;1.00;;;;;-1.42;83.27;101103.28;5095300;28;8830;-57
2024/01/20 08:16:36;;;;;;;;;0.60;0.40;;;;;-1.37;82.89;101106.72;5094047;28;8836;-56
2024/01/20 08:19:04;;;;;;;;;1.00;1.00;;;;;-1.34;82.85;101098.84;5094626;28;8850;-57
2024/01/20 08:21:33;;;;;;;;;1.00;1.00;;;;;-1.29;82.74;101105.72;5094879;28;9690;-57
2024/01/20 08:24:01;;;;;;;;;1.80;1.80;;;;;-1.26;82.54;101116.13;5094020;28;8827;-57
2024/01/20 08:26:32;;;;;;;;;3.40;1.80;;;;;-1.21;83.00;101121.31;5093126;28;8810;-57
2024/01/20 08:29:00;;;;;;;;;2.20;1.40;;;;;-1.16;82.15;101115.13;5091828;28;8875;-57
2024/01/20 08:31:29;;;;;;;;;0.00;0.00;;;;;-1.08;82.22;101128.09;5091462;28;8806;-58
2024/01/20 08:33:57;;;;;;;;;2.20;2.20;;;;;-0.90;82.17;101127.81;5093050;28;8836;-56
2024/01/20 08:36:25;;;;;;;;;1.00;1.00;;;;;-0.69;81.75;101119.66;5093960;28;9761;-59
2024/01/20 08:38:52;;;;;;;;;0.00;0.00;;;;;-0.54;81.24;101125.50;5093344;28;8835;-58
2024/01/20 08:41:21;;;;;;;;;2.60;2.60;;;;;-0.44;81.98;101129.72;5095925;28;8803;-56
2024/01/20 08:43:49;;;;;;;;;1.40;1.40;;;;;-0.38;81.73;101126.13;5097899;28;8823;-57
2024/01/20 08:46:16;;;;;;;;;1.00;0.40;;;;;-0.36;81.69;101132.19;5097708;28;8836;-57
2024/01/20 08:48:44;;;;;;;;;1.40;1.40;;;;;-0.34;81.85;101133.03;5098664;28;8982;-59
2024/01/20 08:51:12;;;;;;;;;2.20;2.20;;;;;-0.35;81.74;101131.28;5098759;28;9750;-56
2024/01/20 08:53:40;;;;;;;;;1.40;1.40;;;;;-0.34;81.58;101135.63;5098204;28;8821;-59
2024/01/20 08:56:08;;;;;;;;;1.80;0.40;;;;;-0.32;81.56;101144.34;5097921;28;8826;-59
2024/01/20 08:58:36;;;;;;;;;1.40;1.40;;;;;-0.30;81.69;101129.47;5097107;28;8956;-59
2024/01/20 09:01:03;;;;;;;;;1.80;1.00;;;;;-0.26;81.74;101126.78;5097264;28;8818;-59
2024/01/20 09:03:31;;;;;;;;;1.00;1.00;;;;;-0.24;81.11;101132.00;5097326;28;8833;-57
2024/01/20 09:05:59;;;;;;;;;2.60;1.00;;;;;-0.20;81.72;101131.91;5096393;28;8848;-57
2024/01/20 09:08:27;;;;;;;;;1.00;1.00;;;;;-0.16;81.11;101130.94;5096278;28;8815;-58
2024/01/20 09:10:56;;;;;;;;;3.00;3.00;;;;;-0.12;81.19;101122.19;5096944;28;8866;-59
2024/01/20 09:13:24;;;;;;;;;4.00;3.20;;;;;-0.09;81.36;101127.34;5097711;28;8827;-57
2024/01/20 09:15:51;;;;;;;;;1.00;1.00;;;;;-0.03;80.71;101124.63;5097676;28;8954;-57
2024/01/20 09:18:19;;;;;;;;;1.00;1.00;;;;;-0.01;81.01;101118.47;5097237;28;8796;-57
2024/01/20 09:20:49;;;;;;;;;3.20;3.20;;;;;0.02;80.54;101120.19;5098119;28;8838;-57
2024/01/20 09:23:17;;;;;;;;;1.00;1.00;;;;;0.05;81.04;101126.22;5098297;28;8812;-57
2024/01/20 09:25:45;;;;;;;;;3.00;3.00;;;;;0.08;80.21;101133.16;5097939;28;8820;-56
2024/01/20 09:28:13;;;;;;;;;1.40;1.40;;;;;0.12;80.07;101130.47;5097607;28;8837;-57
2024/01/20 09:30:42;;;;;;;;;2.20;1.00;;;;;0.16;80.81;101126.88;5098131;28;8818;-57
2024/01/20 09:33:10;;;;;;;;;2.20;2.20;;;;;0.21;80.13;101132.91;5098058;28;8846;-57
2024/01/20 09:35:38;;;;;;;;;1.00;1.00;;;;;0.25;80.33;101128.47;5097335;28;8849;-57
2024/01/20 09:38:05;;;;;;;;;1.80;1.80;;;;;0.32;79.90;101137.94;5097069;28;8826;-57
2024/01/20 09:40:35;;;;;;;;;3.00;3.00;;;;;0.38;79.65;101143.91;5076916;28;8828;-60
2024/01/20 09:43:02;;;;;;;;;4.40;4.00;;;;;0.44;79.45;101141.16;5076318;28;8839;-57
2024/01/20 09:45:30;;;;;;;;;0.60;0.60;;;;;0.51;79.82;101149.75;5076326;28;8862;-57
2024/01/20 09:47:58;;;;;;;;;3.00;3.00;;;;;0.57;79.52;101147.91;5075888;28;8929;-58
2024/01/20 09:50:26;;;;;;;;;0.80;0.80;;;;;0.64;79.38;101146.88;5094494;28;8850;-60
2024/01/20 09:52:54;;;;;;;;;2.20;2.20;;;;;0.71;79.22;101148.47;5095518;28;8847;-59
2024/01/20 09:55:23;;;;;;;;;1.40;1.40;;;;;0.79;79.01;101153.56;5095234;28;8867;-57
2024/01/20 09:57:51;;;;;;;;;0.00;0.00;;;;;0.87;79.38;101149.91;5095506;28;8852;-57
2024/01/20 10:00:19;;;;;;;;;1.00;1.00;;;;;0.96;78.70;101157.56;5094924;28;8968;-58
2024/01/20 10:02:46;;;;;;;;;1.00;1.00;;;;;1.06;78.96;101151.22;5095401;28;8846;-57
2024/01/20 10:05:14;;;;;;;;;3.60;2.20;;;;;1.17;78.48;101146.59;5096106;28;8846;-58
2024/01/20 10:07:42;;;;;;;;;3.20;2.20;;;;;1.30;78.09;101147.19;5095701;28;8822;-57
2024/01/20 10:10:10;;;;;;;;;0.00;0.00;;;;;1.43;78.47;101157.34;5095894;28;8891;-59
2024/01/20 10:12:38;;;;;;;;;0.60;0.60;;;;;1.50;77.90;101153.69;5096164;28;9503;-59
2024/01/20 10:15:06;;;;;;;;;1.00;1.00;;;;;1.55;77.38;101157.06;5096067;28;8875;-58
2024/01/20 10:17:34;;;;;;;;;1.00;1.00;;;;;1.63;77.34;101155.13;5095927;28;8839;-56
2024/01/20 10:20:01;;;;;;;;;2.80;2.80;;;;;1.72;77.45;101159.28;5095662;28;9488;-58
2024/01/20 10:22:29;;;;;;;;;3.00;3.00;;;;;1.84;77.05;101153.72;5095817;28;8815;-60
2024/01/20 10:24:57;;;;;;;;;3.80;2.60;;;;;2.00;76.61;101153.31;5095862;28;8842;-60
2024/01/20 10:27:25;;;;;;;;;3.60;3.00;;;;;2.22;76.88;101157.09;5096031;28;8970;-59
2024/01/20 10:29:53;;;;;;;;;0.40;0.40;;;;;2.55;75.48;101144.78;5096227;28;8828;-59
2024/01/20 10:32:21;;;;;;;;;0.60;0.60;;;;;2.93;74.63;101142.81;5095973;28;8831;-59
2024/01/20 10:34:49;;;;;;;;;1.80;1.00;;;;;3.41;73.64;101138.66;5096186;28;8942;-60
2024/01/20 10:37:17;;;;;;;;;1.00;1.00;;;;;4.16;72.42;101133.50;5095866;28;8838;-59
2024/01/20 10:39:45;;;;;;;;;2.60;1.00;;;;;4.88;70.83;101126.44;5095322;28;8830;-60
2024/01/20 10:42:13;;;;;;;;;1.00;1.00;;;;;5.46;70.23;101120.63;5094849;28;8829;-59
2024/01/20 10:44:41;;;;;;;;;2.60;2.60;;;;;6.02;69.12;101116.56;5095318;28;8834;-60
2024/01/20 10:47:09;;;;;;;;;1.40;1.40;;;;;6.62;68.18;101118.31;5095364;28;8838;-59
2024/01/20 10:49:37;;;;;;;;;2.20;2.20;;;;;7.15;67.64;101112.28;5095747;28;9517;-60
2024/01/20 10:52:06;;;;;;;;;3.60;3.20;;;;;7.26;66.19;101122.34;5093810;28;8833;-58
2024/01/20 10:54:34;;;;;;;;;3.00;3.00;;;;;7.12;66.83;101114.22;5095318;28;8828;-60
2024/01/20 10:57:02;;;;;;;;;1.80;1.40;;;;;7.06;67.95;101119.78;5095693;28;8829;-60
2024/01/20 10:59:30;;;;;;;;;0.40;0.40;;;;;7.10;67.43;101122.22;5095368;28;8894;-60
2024/01/20 11:01:57;;;;;;;;;1.00;1.00;;;;;7.08;66.97;101117.91;5095403;28;8834;-57
2024/01/20 11:04:25;;;;;;;;;2.60;2.60;;;;;7.19;66.66;101113.00;5094831;28;8834;-59
2024/01/20 11:06:54;;;;;;;;;3.00;3.00;;;;;7.42;65.84;101107.47;5095776;28;8822;-59
2024/01/20 11:09:22;;;;;;;;;3.60;3.00;;;;;7.71;65.06;101107.75;5094559;28;9472;-60
2024/01/20 11:11:50;;;;;;;;;1.80;1.80;;;;;7.90;64.90;101113.88;5094945;28;9547;-59
2024/01/20 11:14:19;;;;;;;;;2.00;2.00;;;;;7.65;66.25;101118.66;5095249;28;8976;-60
2024/01/20 11:16:47;;;;;;;;;1.00;1.00;;;;;7.44;66.24;101114.38;5094657;28;9513;-57
2024/01/20 11:19:15;;;;;;;;;1.00;1.00;;;;;7.32;67.17;101104.38;5093332;28;8831;-58
2024/01/20 11:21:43;;;;;;;;;0.00;0.00;;;;;7.38;66.48;101100.59;5093091;28;8920;-58
2024/01/20 11:24:11;;;;;;;;;3.00;3.00;;;;;7.43;66.83;101101.22;5093881;28;9601;-58
2024/01/20 11:26:42;;;;;;;;;1.50;1.50;;;;;7.47;66.79;101100.13;5093427;28;8905;-58
2024/01/20 11:29:09;;;;;;;;;2.50;1.00;;;;;7.68;66.30;101092.84;5093718;28;8840;-58
2024/01/20 11:31:37;;;;;;;;;4.00;3.50;;;;;7.89;65.52;101104.16;5093701;28;8817;-57
2024/01/20 11:34:05;;;;;;;;;2.00;1.00;;;;;8.10;64.37;101098.66;5094862;28;8851;-57
2024/01/20 11:36:35;;;;;;;;;1.00;1.00;;;;;8.30;63.76;101103.81;5095205;28;8817;-58